createdAt,value
2017-03-18T00:00:20.451Z,1003.61
2017-03-18T00:01:02.930Z,1003.51
2017-03-18T00:01:43.439Z,1003.53
2017-03-18T00:02:23.973Z,1003.54
2017-03-18T00:03:04.482Z,1003.53
2017-03-18T00:03:45.014Z,1003.53
2017-03-18T00:04:25.524Z,1003.56
2017-03-18T00:05:06.033Z,1003.51
2017-03-18T00:05:46.549Z,1003.54
2017-03-18T00:06:27.060Z,1003.54
2017-03-18T00:07:07.578Z,1003.55
2017-03-18T00:07:48.089Z,1003.49
2017-03-18T00:08:28.612Z,1003.51
2017-03-18T00:09:09.132Z,1003.53
2017-03-18T00:09:49.648Z,1003.59
2017-03-18T00:10:30.163Z,1003.59
2017-03-18T00:11:10.704Z,1003.58
2017-03-18T00:11:51.221Z,1003.65
2017-03-18T00:12:31.765Z,1003.57
2017-03-18T00:13:12.292Z,1003.64
2017-03-18T00:13:52.820Z,1003.61
2017-03-18T00:14:33.340Z,1003.61
2017-03-18T00:15:13.865Z,1003.64
2017-03-18T00:15:54.383Z,1003.63
2017-03-18T00:16:34.910Z,1003.61
2017-03-18T00:17:15.441Z,1003.64
2017-03-18T00:17:55.972Z,1003.69
2017-03-18T00:18:36.486Z,1003.68
2017-03-18T00:19:17.016Z,1003.62
2017-03-18T00:19:57.532Z,1003.69
2017-03-18T00:20:38.058Z,1003.72
2017-03-18T00:21:18.562Z,1003.65
2017-03-18T00:21:59.077Z,1003.61
2017-03-18T00:22:39.605Z,1003.62
2017-03-18T00:23:20.132Z,1003.67
2017-03-18T00:24:00.636Z,1003.58
2017-03-18T00:24:41.139Z,1003.55
2017-03-18T00:25:21.653Z,1003.55
2017-03-18T00:26:02.179Z,1003.53
2017-03-18T00:26:42.695Z,1003.51
2017-03-18T00:27:23.222Z,1003.4
2017-03-18T00:28:03.734Z,1003.43
2017-03-18T00:28:44.243Z,1003.39
2017-03-18T00:29:24.752Z,1003.33
2017-03-18T00:30:05.263Z,1003.34
2017-03-18T00:30:45.783Z,1003.37
2017-03-18T00:31:26.326Z,1003.33
2017-03-18T00:32:06.842Z,1003.26
2017-03-18T00:32:47.363Z,1003.28
2017-03-18T00:33:27.888Z,1003.2
2017-03-18T00:34:08.431Z,1003.15
2017-03-18T00:34:48.930Z,1003.21
2017-03-18T00:35:29.456Z,1003.15
2017-03-18T00:36:09.983Z,1003.11
2017-03-18T00:36:50.496Z,1003.09
2017-03-18T00:37:31.023Z,1003.14
2017-03-18T00:38:11.541Z,1003.08
2017-03-18T00:38:52.062Z,1003.05
2017-03-18T00:39:32.583Z,1003.09
2017-03-18T00:40:13.121Z,1003.05
2017-03-18T00:40:53.625Z,1003.05
2017-03-18T00:41:34.128Z,1003.03
2017-03-18T00:42:14.653Z,1003.1
2017-03-18T00:42:55.173Z,1003.05
2017-03-18T00:43:35.689Z,1003.02
2017-03-18T00:44:16.230Z,1003.04
2017-03-18T00:44:56.729Z,1003.02
2017-03-18T00:45:37.223Z,1003.04
2017-03-18T00:46:17.741Z,1003.05
2017-03-18T00:46:58.264Z,1003.03
2017-03-18T00:47:38.770Z,1003.04
2017-03-18T00:48:19.287Z,1003.02
2017-03-18T00:48:59.801Z,1003.05
2017-03-18T00:49:40.331Z,1003.08
2017-03-18T00:50:20.853Z,1003.09
2017-03-18T00:51:01.360Z,1003.04
2017-03-18T00:51:41.871Z,1003.02
2017-03-18T00:52:22.400Z,1003
2017-03-18T00:53:02.934Z,1003.03
2017-03-18T00:53:43.437Z,1003.07
2017-03-18T00:54:23.959Z,1003.04
2017-03-18T00:55:04.469Z,1003.1
2017-03-18T00:55:44.985Z,1003.1
2017-03-18T00:56:25.490Z,1003.08
2017-03-18T00:57:06.846Z,1003.12
2017-03-18T00:57:47.346Z,1003.11
2017-03-18T00:58:27.868Z,1003.13
2017-03-18T00:59:08.380Z,1003.14
2017-03-18T00:59:48.892Z,1003.09
2017-03-18T01:00:29.397Z,1003.08
2017-03-18T01:01:09.906Z,1003.08
2017-03-18T01:01:50.428Z,1003.05
2017-03-18T01:02:30.941Z,1003.04
2017-03-18T01:03:11.440Z,1003.05
2017-03-18T01:03:51.932Z,1003.04
2017-03-18T01:04:32.435Z,1003.02
2017-03-18T01:05:12.962Z,1002.97
2017-03-18T01:05:53.493Z,1002.94
2017-03-18T01:06:34.011Z,1002.97
2017-03-18T01:07:14.526Z,1002.92
2017-03-18T01:07:55.040Z,1002.9
2017-03-18T01:08:35.555Z,1002.93
2017-03-18T01:09:16.061Z,1003
2017-03-18T01:09:56.581Z,1002.97
2017-03-18T01:10:37.089Z,1002.94
2017-03-18T01:11:17.616Z,1002.91
2017-03-18T01:11:58.125Z,1002.94
2017-03-18T01:12:38.641Z,1002.97
2017-03-18T01:13:19.146Z,1002.96
2017-03-18T01:13:59.655Z,1002.97
2017-03-18T01:14:40.178Z,1002.95
2017-03-18T01:15:20.688Z,1002.95
2017-03-18T01:16:01.193Z,1002.92
2017-03-18T01:16:41.715Z,1002.91
2017-03-18T01:17:22.239Z,1002.9
2017-03-18T01:18:02.735Z,1002.95
2017-03-18T01:18:43.239Z,1002.94
2017-03-18T01:19:23.741Z,1002.92
2017-03-18T01:20:04.256Z,1002.83
2017-03-18T01:20:44.779Z,1002.84
2017-03-18T01:21:25.299Z,1002.88
2017-03-18T01:22:05.811Z,1002.83
2017-03-18T01:22:46.342Z,1002.82
2017-03-18T01:23:26.864Z,1002.78
2017-03-18T01:24:07.390Z,1002.73
2017-03-18T01:24:47.876Z,1002.7
2017-03-18T01:25:28.395Z,1002.68
2017-03-18T01:26:08.914Z,1002.68
2017-03-18T01:26:49.418Z,1002.7
2017-03-18T01:27:29.937Z,1002.67
2017-03-18T01:28:10.449Z,1002.67
2017-03-18T01:28:50.948Z,1002.62
2017-03-18T01:29:31.466Z,1002.57
2017-03-18T01:30:11.977Z,1002.55
2017-03-18T01:30:52.504Z,1002.51
2017-03-18T01:31:33.011Z,1002.46
2017-03-18T01:32:13.516Z,1002.38
2017-03-18T01:32:54.028Z,1002.36
2017-03-18T01:33:34.521Z,1002.32
2017-03-18T01:34:15.043Z,1002.28
2017-03-18T01:34:55.541Z,1002.21
2017-03-18T01:35:36.043Z,1002.21
2017-03-18T01:36:16.567Z,1002.18
2017-03-18T01:36:57.087Z,1002.17
2017-03-18T01:37:37.605Z,1002.16
2017-03-18T01:38:18.148Z,1002.14
2017-03-18T01:38:58.663Z,1002.18
2017-03-18T01:39:39.178Z,1002.16
2017-03-18T01:40:19.691Z,1002.2
2017-03-18T01:41:00.232Z,1002.18
2017-03-18T01:41:40.737Z,1002.08
2017-03-18T01:42:21.259Z,1002.05
2017-03-18T01:43:01.792Z,1002
2017-03-18T01:43:42.311Z,1001.96
2017-03-18T01:44:22.815Z,1001.89
2017-03-18T01:45:03.362Z,1001.84
2017-03-18T01:45:43.886Z,1001.86
2017-03-18T01:46:24.422Z,1001.85
2017-03-18T01:47:04.935Z,1001.81
2017-03-18T01:47:45.461Z,1001.84
2017-03-18T01:48:25.980Z,1001.75
2017-03-18T01:49:06.495Z,1001.74
2017-03-18T01:49:46.993Z,1001.75
2017-03-18T01:50:27.527Z,1001.76
2017-03-18T01:51:08.037Z,1001.78
2017-03-18T01:51:48.566Z,1001.74
2017-03-18T01:52:29.094Z,1001.76
2017-03-18T01:53:09.636Z,1001.66
2017-03-18T01:53:50.154Z,1001.62
2017-03-18T01:54:30.657Z,1001.57
2017-03-18T01:55:11.185Z,1001.59
2017-03-18T01:55:51.693Z,1001.52
2017-03-18T01:56:32.216Z,1001.54
2017-03-18T01:57:12.729Z,1001.48
2017-03-18T01:57:53.239Z,1001.49
2017-03-18T01:58:33.747Z,1001.43
2017-03-18T01:59:14.270Z,1001.41
2017-03-18T01:59:54.800Z,1001.38
2017-03-18T02:00:35.300Z,1001.42
2017-03-18T02:01:15.868Z,1001.32
2017-03-18T02:01:56.380Z,1001.33
2017-03-18T02:02:36.874Z,1001.32
2017-03-18T02:03:17.392Z,1001.23
2017-03-18T02:03:57.910Z,1001.27
2017-03-18T02:04:38.427Z,1001.26
2017-03-18T02:05:18.944Z,1001.24
2017-03-18T02:05:59.474Z,1001.21
2017-03-18T02:06:39.993Z,1001.24
2017-03-18T02:07:20.508Z,1001.2
2017-03-18T02:08:01.029Z,1001.2
2017-03-18T02:08:41.528Z,1001.24
2017-03-18T02:09:22.046Z,1001.29
2017-03-18T02:10:02.565Z,1001.34
2017-03-18T02:10:43.096Z,1001.36
2017-03-18T02:11:23.592Z,1001.33
2017-03-18T02:12:04.080Z,1001.3
2017-03-18T02:12:44.596Z,1001.33
2017-03-18T02:13:25.107Z,1001.38
2017-03-18T02:14:05.637Z,1001.44
2017-03-18T02:14:46.142Z,1001.34
2017-03-18T02:15:26.656Z,1001.3
2017-03-18T02:16:07.173Z,1001.24
2017-03-18T02:16:47.714Z,1001.31
2017-03-18T02:17:28.207Z,1001.34
2017-03-18T02:18:08.738Z,1001.31
2017-03-18T02:18:49.236Z,1001.36
2017-03-18T02:19:29.773Z,1001.36
2017-03-18T02:20:10.295Z,1001.37
2017-03-18T02:20:50.800Z,1001.42
2017-03-18T02:21:31.323Z,1001.45
2017-03-18T02:22:11.831Z,1001.51
2017-03-18T02:22:52.356Z,1001.54
2017-03-18T02:23:32.897Z,1001.65
2017-03-18T02:24:13.424Z,1001.69
2017-03-18T02:24:53.935Z,1001.66
2017-03-18T02:25:34.461Z,1001.55
2017-03-18T02:26:14.994Z,1001.58
2017-03-18T02:26:55.525Z,1001.56
2017-03-18T02:27:36.037Z,1001.53
2017-03-18T02:28:16.538Z,1001.66
2017-03-18T02:28:57.048Z,1001.64
2017-03-18T02:29:37.568Z,1001.57
2017-03-18T02:30:18.076Z,1001.55
2017-03-18T02:30:58.567Z,1001.62
2017-03-18T02:31:39.062Z,1001.63
2017-03-18T02:32:19.556Z,1001.63
2017-03-18T02:33:00.068Z,1001.63
2017-03-18T02:33:40.563Z,1001.61
2017-03-18T02:34:21.079Z,1001.59
2017-03-18T02:35:01.600Z,1001.51
2017-03-18T02:35:42.098Z,1001.51
2017-03-18T02:36:22.605Z,1001.44
2017-03-18T02:37:03.109Z,1001.38
2017-03-18T02:37:43.637Z,1001.36
2017-03-18T02:38:24.130Z,1001.37
2017-03-18T02:39:04.641Z,1001.39
2017-03-18T02:39:45.157Z,1001.37
2017-03-18T02:40:25.669Z,1001.32
2017-03-18T02:41:06.170Z,1001.37
2017-03-18T02:41:46.659Z,1001.35
2017-03-18T02:42:27.183Z,1001.28
2017-03-18T02:43:07.684Z,1001.26
2017-03-18T02:43:48.216Z,1001.34
2017-03-18T02:44:28.710Z,1001.3
2017-03-18T02:45:09.253Z,1001.28
2017-03-18T02:45:49.758Z,1001.23
2017-03-18T02:46:30.274Z,1001.23
2017-03-18T02:47:10.779Z,1001.23
2017-03-18T02:47:51.296Z,1001.24
2017-03-18T02:48:31.804Z,1001.26
2017-03-18T02:49:12.318Z,1001.22
2017-03-18T02:49:52.821Z,1001.18
2017-03-18T02:50:33.341Z,1001.16
2017-03-18T02:51:13.848Z,1001.21
2017-03-18T02:51:54.363Z,1001.19
2017-03-18T02:52:34.876Z,1001.16
2017-03-18T02:53:15.375Z,1001.06
2017-03-18T02:53:55.889Z,1001.07
2017-03-18T02:54:36.415Z,1001.08
2017-03-18T02:55:16.952Z,1001.06
2017-03-18T02:55:57.483Z,1000.98
2017-03-18T02:56:37.969Z,1001.08
2017-03-18T02:57:18.500Z,1001.07
2017-03-18T02:57:59.849Z,1001.01
2017-03-18T02:58:40.386Z,1001.11
2017-03-18T02:59:20.911Z,1001.1
2017-03-18T03:00:01.419Z,1001.05
2017-03-18T03:00:41.942Z,1001.1
2017-03-18T03:01:22.435Z,1001.05
2017-03-18T03:02:02.970Z,1001.08
2017-03-18T03:02:43.464Z,1001.07
2017-03-18T03:03:23.967Z,1001.05
2017-03-18T03:04:04.454Z,1001.04
2017-03-18T03:04:44.952Z,1001.03
2017-03-18T03:05:25.481Z,1001.09
2017-03-18T03:06:05.996Z,1001.02
2017-03-18T03:06:46.481Z,1000.98
2017-03-18T03:07:26.985Z,1000.96
2017-03-18T03:08:07.495Z,1001.01
2017-03-18T03:08:48.019Z,1000.84
2017-03-18T03:09:28.527Z,1000.92
2017-03-18T03:10:09.031Z,1000.89
2017-03-18T03:10:49.552Z,1000.88
2017-03-18T03:11:30.067Z,1000.87
2017-03-18T03:12:10.573Z,1000.9
2017-03-18T03:12:51.072Z,1000.94
2017-03-18T03:13:31.617Z,1000.95
2017-03-18T03:14:12.126Z,1000.85
2017-03-18T03:14:52.638Z,1000.89
2017-03-18T03:15:33.133Z,1000.89
2017-03-18T03:16:13.638Z,1000.84
2017-03-18T03:16:54.175Z,1000.8
2017-03-18T03:17:34.699Z,1000.81
2017-03-18T03:18:15.212Z,1000.81
2017-03-18T03:18:55.731Z,1000.82
2017-03-18T03:19:36.246Z,1000.79
2017-03-18T03:20:16.737Z,1000.73
2017-03-18T03:20:57.273Z,1000.78
2017-03-18T03:21:37.749Z,1000.81
2017-03-18T03:22:18.291Z,1000.78
2017-03-18T03:22:58.789Z,1000.73
2017-03-18T03:23:39.355Z,1000.84
2017-03-18T03:24:19.882Z,1000.72
2017-03-18T03:25:00.380Z,1000.78
2017-03-18T03:25:40.880Z,1000.76
2017-03-18T03:26:21.368Z,1000.73
2017-03-18T03:27:01.886Z,1000.72
2017-03-18T03:27:42.411Z,1000.78
2017-03-18T03:28:22.932Z,1000.69
2017-03-18T03:29:03.432Z,1000.69
2017-03-18T03:29:43.937Z,1000.7
2017-03-18T03:30:24.449Z,1000.67
2017-03-18T03:31:04.950Z,1000.67
2017-03-18T03:31:45.469Z,1000.63
2017-03-18T03:32:25.993Z,1000.52
2017-03-18T03:33:06.508Z,1000.52
2017-03-18T03:33:47.018Z,1000.55
2017-03-18T03:34:27.532Z,1000.47
2017-03-18T03:35:08.036Z,1000.52
2017-03-18T03:35:48.553Z,1000.54
2017-03-18T03:36:29.067Z,1000.52
2017-03-18T03:37:09.567Z,1000.55
2017-03-18T03:37:50.079Z,1000.55
2017-03-18T03:38:30.577Z,1000.54
2017-03-18T03:39:11.096Z,1000.61
2017-03-18T03:39:51.624Z,1000.54
2017-03-18T03:40:32.114Z,1000.48
2017-03-18T03:41:12.629Z,1000.49
2017-03-18T03:41:53.140Z,1000.64
2017-03-18T03:42:33.667Z,1000.55
2017-03-18T03:43:14.186Z,1000.57
2017-03-18T03:43:54.689Z,1000.51
2017-03-18T03:44:35.176Z,1000.51
2017-03-18T03:45:15.692Z,1000.53
2017-03-18T03:45:56.209Z,1000.53
2017-03-18T03:46:36.723Z,1000.56
2017-03-18T03:47:17.239Z,1000.52
2017-03-18T03:47:57.741Z,1000.63
2017-03-18T03:48:38.231Z,1000.54
2017-03-18T03:49:18.727Z,1000.52
2017-03-18T03:49:59.215Z,1000.48
2017-03-18T03:50:39.718Z,1000.51
2017-03-18T03:51:20.230Z,1000.55
2017-03-18T03:52:00.747Z,1000.48
2017-03-18T03:52:41.264Z,1000.48
2017-03-18T03:53:21.777Z,1000.52
2017-03-18T03:54:02.291Z,1000.49
2017-03-18T03:54:42.828Z,1000.53
2017-03-18T03:55:23.314Z,1000.5
2017-03-18T03:56:03.825Z,1000.5
2017-03-18T03:56:44.325Z,1000.51
2017-03-18T03:57:24.825Z,1000.52
2017-03-18T03:58:05.346Z,1000.52
2017-03-18T03:58:45.849Z,1000.48
2017-03-18T03:59:26.367Z,1000.46
2017-03-18T04:00:06.857Z,1000.57
2017-03-18T04:00:47.381Z,1000.49
2017-03-18T04:01:27.921Z,1000.43
2017-03-18T04:02:08.433Z,1000.43
2017-03-18T04:02:48.934Z,1000.4
2017-03-18T04:03:29.453Z,1000.44
2017-03-18T04:04:09.962Z,1000.59
2017-03-18T04:04:50.468Z,1000.38
2017-03-18T04:05:30.960Z,1000.45
2017-03-18T04:06:11.493Z,1000.51
2017-03-18T04:06:52.010Z,1000.49
2017-03-18T04:07:32.527Z,1000.44
2017-03-18T04:08:13.029Z,1000.46
2017-03-18T04:08:53.523Z,1000.51
2017-03-18T04:09:34.029Z,1000.36
2017-03-18T04:10:14.536Z,1000.34
2017-03-18T04:10:55.037Z,1000.45
2017-03-18T04:11:35.556Z,1000.39
2017-03-18T04:12:16.063Z,1000.33
2017-03-18T04:12:56.588Z,1000.38
2017-03-18T04:13:37.100Z,1000.33
2017-03-18T04:14:17.592Z,1000.34
2017-03-18T04:14:58.114Z,1000.27
2017-03-18T04:15:38.619Z,1000.23
2017-03-18T04:16:19.143Z,1000.25
2017-03-18T04:16:59.654Z,1000.26
2017-03-18T04:17:40.174Z,1000.27
2017-03-18T04:18:20.688Z,1000.34
2017-03-18T04:19:01.218Z,1000.31
2017-03-18T04:19:41.716Z,1000.28
2017-03-18T04:20:22.248Z,1000.21
2017-03-18T04:21:02.770Z,1000.24
2017-03-18T04:21:43.269Z,1000.25
2017-03-18T04:22:23.789Z,1000.22
2017-03-18T04:23:04.305Z,1000.21
2017-03-18T04:23:44.810Z,1000.24
2017-03-18T04:24:25.323Z,1000.18
2017-03-18T04:25:05.843Z,1000.19
2017-03-18T04:25:46.356Z,1000.17
2017-03-18T04:26:26.888Z,1000.25
2017-03-18T04:27:07.381Z,1000.24
2017-03-18T04:27:47.887Z,1000.15
2017-03-18T04:28:28.402Z,1000.22
2017-03-18T04:29:08.952Z,1000.31
2017-03-18T04:29:49.475Z,1000.2
2017-03-18T04:30:29.977Z,1000.2
2017-03-18T04:31:10.550Z,1000.21
2017-03-18T04:31:51.628Z,1000.18
2017-03-18T04:32:32.141Z,1000.2
2017-03-18T04:33:12.868Z,1000.17
2017-03-18T04:33:53.406Z,1000.11
2017-03-18T04:34:33.935Z,1000.12
2017-03-18T04:35:14.427Z,1000.11
2017-03-18T04:35:54.974Z,1000.05
2017-03-18T04:36:36.008Z,1000.06
2017-03-18T04:37:16.491Z,1000.12
2017-03-18T04:37:57.019Z,1000.07
2017-03-18T04:38:37.624Z,1000.06
2017-03-18T04:39:18.107Z,1000.05
2017-03-18T04:39:58.612Z,1000.08
2017-03-18T04:40:39.170Z,1000.16
2017-03-18T04:41:19.753Z,1000.11
2017-03-18T04:42:00.241Z,1000.08
2017-03-18T04:42:40.770Z,1000.08
2017-03-18T04:43:21.312Z,1000.01
2017-03-18T04:44:01.827Z,1000.1
2017-03-18T04:44:42.338Z,1000.09
2017-03-18T04:45:22.934Z,1000.12
2017-03-18T04:46:03.551Z,1000.13
2017-03-18T04:46:44.121Z,1000.21
2017-03-18T04:47:24.637Z,1000.13
2017-03-18T04:48:05.178Z,1000.14
2017-03-18T04:48:45.662Z,1000.1
2017-03-18T04:49:26.212Z,1000.2
2017-03-18T04:50:06.682Z,1000.11
2017-03-18T04:50:47.309Z,1000.06
2017-03-18T04:51:27.866Z,1000.15
2017-03-18T04:52:08.395Z,1000.05
2017-03-18T04:52:48.976Z,1000.07
2017-03-18T04:53:29.545Z,1000.04
2017-03-18T04:54:10.088Z,1000.05
2017-03-18T04:54:50.717Z,1000.13
2017-03-18T04:55:31.313Z,1000.13
2017-03-18T04:56:11.819Z,1000.15
2017-03-18T04:56:52.385Z,1000.14
2017-03-18T04:57:33.061Z,1000.12
2017-03-18T04:58:13.542Z,1000.12
2017-03-18T04:58:54.010Z,1000.15
2017-03-18T04:59:34.554Z,1000.17
2017-03-18T05:00:15.060Z,1000.17
2017-03-18T05:00:55.572Z,1000.17
2017-03-18T05:01:36.068Z,1000.21
2017-03-18T05:02:16.568Z,1000.18
2017-03-18T05:02:57.096Z,1000.1
2017-03-18T05:03:37.657Z,1000.17
2017-03-18T05:04:18.134Z,1000.18
2017-03-18T05:04:58.647Z,1000.28
2017-03-18T05:05:39.227Z,1000.14
2017-03-18T05:06:19.729Z,1000.11
2017-03-18T05:07:00.265Z,1000.13
2017-03-18T05:07:40.804Z,1000.11
2017-03-18T05:08:21.298Z,1000.17
2017-03-18T05:09:01.806Z,1000.13
2017-03-18T05:09:42.321Z,1000.06
2017-03-18T05:10:22.821Z,1000.11
2017-03-18T05:11:03.339Z,1000.12
2017-03-18T05:11:43.846Z,1000.01
2017-03-18T05:12:24.350Z,1000.08
2017-03-18T05:13:04.918Z,1000.12
2017-03-18T05:13:45.440Z,1000.02
2017-03-18T05:14:25.944Z,1000.19
2017-03-18T05:15:06.461Z,1000.13
2017-03-18T05:15:47.009Z,1000.13
2017-03-18T05:16:27.520Z,1000.12
2017-03-18T05:17:08.021Z,1000.11
2017-03-18T05:17:48.549Z,1000.05
2017-03-18T05:18:29.040Z,1000.12
2017-03-18T05:19:09.560Z,1000.12
2017-03-18T05:19:50.088Z,1000.09
2017-03-18T05:20:30.621Z,1000.09
2017-03-18T05:21:11.150Z,1000.14
2017-03-18T05:21:51.660Z,1000.16
2017-03-18T05:22:32.179Z,1000.14
2017-03-18T05:23:12.681Z,1000.15
2017-03-18T05:23:53.221Z,1000.06
2017-03-18T05:24:33.769Z,1000.09
2017-03-18T05:25:14.276Z,1000.12
2017-03-18T05:25:54.918Z,1000.13
2017-03-18T05:26:35.499Z,1000.17
2017-03-18T05:27:16.074Z,1000.22
2017-03-18T05:27:56.579Z,1000.13
2017-03-18T05:28:37.078Z,1000.11
2017-03-18T05:29:17.588Z,1000.05
2017-03-18T05:29:58.087Z,1000.12
2017-03-18T05:30:38.620Z,1000.25
2017-03-18T05:31:19.111Z,1000.17
2017-03-18T05:31:59.617Z,1000.1
2017-03-18T05:32:40.130Z,1000.16
2017-03-18T05:33:20.645Z,1000.25
2017-03-18T05:34:01.141Z,1000.19
2017-03-18T05:34:41.656Z,1000.18
2017-03-18T05:35:22.206Z,1000.31
2017-03-18T05:36:02.696Z,1000.27
2017-03-18T05:36:43.213Z,1000.28
2017-03-18T05:37:23.713Z,1000.24
2017-03-18T05:38:04.219Z,1000.25
2017-03-18T05:38:44.729Z,1000.26
2017-03-18T05:39:25.257Z,1000.27
2017-03-18T05:40:05.766Z,1000.25
2017-03-18T05:40:46.284Z,1000.26
2017-03-18T05:41:26.803Z,1000.4
2017-03-18T05:42:07.293Z,1000.48
2017-03-18T05:42:47.794Z,1000.41
2017-03-18T05:43:28.322Z,1000.35
2017-03-18T05:44:08.830Z,1000.34
2017-03-18T05:44:49.345Z,1000.33
2017-03-18T05:45:29.835Z,1000.39
2017-03-18T05:46:10.372Z,1000.39
2017-03-18T05:46:50.892Z,1000.37
2017-03-18T05:47:31.408Z,1000.31
2017-03-18T05:48:11.910Z,1000.4
2017-03-18T05:48:52.440Z,1000.33
2017-03-18T05:49:32.943Z,1000.35
2017-03-18T05:50:13.448Z,1000.4
2017-03-18T05:50:53.966Z,1000.37
2017-03-18T05:51:34.479Z,1000.35
2017-03-18T05:52:14.999Z,1000.4
2017-03-18T05:52:55.514Z,1000.46
2017-03-18T05:53:36.024Z,1000.48
2017-03-18T05:54:16.551Z,1000.41
2017-03-18T05:54:57.056Z,1000.41
2017-03-18T05:55:37.578Z,1000.41
2017-03-18T05:56:18.077Z,1000.44
2017-03-18T05:56:58.581Z,1000.35
2017-03-18T05:57:39.110Z,1000.36
2017-03-18T05:58:19.614Z,1000.43
2017-03-18T05:59:00.130Z,1000.42
2017-03-18T05:59:40.707Z,1000.38
2017-03-18T06:00:21.203Z,1000.36
2017-03-18T06:01:01.700Z,1000.43
2017-03-18T06:01:42.217Z,1000.42
2017-03-18T06:02:22.705Z,1000.43
2017-03-18T06:03:03.226Z,1000.43
2017-03-18T06:03:43.723Z,1000.41
2017-03-18T06:04:24.286Z,1000.46
2017-03-18T06:05:04.755Z,1000.47
2017-03-18T06:05:45.262Z,1000.44
2017-03-18T06:06:25.773Z,1000.42
2017-03-18T06:07:06.285Z,1000.43
2017-03-18T06:07:46.793Z,1000.37
2017-03-18T06:08:27.303Z,1000.44
2017-03-18T06:09:07.839Z,1000.43
2017-03-18T06:09:48.352Z,1000.5
2017-03-18T06:10:28.820Z,1000.37
2017-03-18T06:11:09.350Z,1000.41
2017-03-18T06:11:49.865Z,1000.62
2017-03-18T06:12:30.382Z,1000.49
2017-03-18T06:13:10.916Z,1000.49
2017-03-18T06:13:51.431Z,1000.54
2017-03-18T06:14:31.941Z,1000.51
2017-03-18T06:15:12.431Z,1000.43
2017-03-18T06:15:52.971Z,1000.5
2017-03-18T06:16:33.490Z,1000.49
2017-03-18T06:17:13.987Z,1000.54
2017-03-18T06:17:54.496Z,1000.46
2017-03-18T06:18:35.005Z,1000.56
2017-03-18T06:19:15.523Z,1000.49
2017-03-18T06:19:56.031Z,1000.45
2017-03-18T06:20:36.522Z,1000.51
2017-03-18T06:21:17.051Z,1000.57
2017-03-18T06:21:57.570Z,1000.61
2017-03-18T06:22:38.067Z,1000.53
2017-03-18T06:23:18.601Z,1000.56
2017-03-18T06:23:59.145Z,1000.52
2017-03-18T06:24:39.688Z,1000.56
2017-03-18T06:25:20.201Z,1000.6
2017-03-18T06:26:00.729Z,1000.51
2017-03-18T06:26:41.256Z,1000.52
2017-03-18T06:27:21.778Z,1000.51
2017-03-18T06:28:02.274Z,1000.54
2017-03-18T06:28:42.799Z,1000.6
2017-03-18T06:29:23.364Z,1000.53
2017-03-18T06:30:03.865Z,1000.64
2017-03-18T06:30:44.384Z,1000.52
2017-03-18T06:31:24.890Z,1000.58
2017-03-18T06:32:05.389Z,1000.55
2017-03-18T06:32:45.928Z,1000.58
2017-03-18T06:33:26.476Z,1000.59
2017-03-18T06:34:06.984Z,1000.43
2017-03-18T06:34:47.513Z,1000.45
2017-03-18T06:35:28.031Z,1000.49
2017-03-18T06:36:08.543Z,1000.49
2017-03-18T06:36:49.076Z,1000.49
2017-03-18T06:37:29.593Z,1000.48
2017-03-18T06:38:10.127Z,1000.59
2017-03-18T06:38:50.625Z,1000.58
2017-03-18T06:39:31.227Z,1000.53
2017-03-18T06:40:11.734Z,1000.6
2017-03-18T06:40:52.280Z,1000.55
2017-03-18T06:41:32.801Z,1000.54
2017-03-18T06:42:13.324Z,1000.57
2017-03-18T06:42:53.866Z,1000.54
2017-03-18T06:43:34.423Z,1000.53
2017-03-18T06:44:14.943Z,1000.54
2017-03-18T06:44:55.463Z,1000.53
2017-03-18T06:45:35.958Z,1000.6
2017-03-18T06:46:16.481Z,1000.66
2017-03-18T06:46:57.045Z,1000.69
2017-03-18T06:47:37.882Z,1000.7
2017-03-18T06:48:18.489Z,1000.71
2017-03-18T06:48:59.003Z,1000.66
2017-03-18T06:49:39.509Z,1000.62
2017-03-18T06:50:20.018Z,1000.64
2017-03-18T06:51:00.540Z,1000.69
2017-03-18T06:51:41.071Z,1000.71
2017-03-18T06:52:21.582Z,1000.72
2017-03-18T06:53:02.121Z,1000.67
2017-03-18T06:53:42.621Z,1000.68
2017-03-18T06:54:23.147Z,1000.66
2017-03-18T06:55:03.672Z,1000.69
2017-03-18T06:55:44.170Z,1000.7
2017-03-18T06:56:24.700Z,1000.69
2017-03-18T06:57:05.216Z,1000.71
2017-03-18T06:57:45.744Z,1000.77
2017-03-18T06:58:26.259Z,1000.78
2017-03-18T06:59:06.774Z,1000.73
2017-03-18T06:59:47.286Z,1000.74
2017-03-18T07:00:27.796Z,1000.72
2017-03-18T07:01:08.310Z,1000.76
2017-03-18T07:01:48.819Z,1000.71
2017-03-18T07:02:29.352Z,1000.69
2017-03-18T07:03:09.867Z,1000.72
2017-03-18T07:03:50.380Z,1000.76
2017-03-18T07:04:30.903Z,1000.71
2017-03-18T07:05:11.411Z,1000.75
2017-03-18T07:05:51.915Z,1000.73
2017-03-18T07:06:32.426Z,1000.73
2017-03-18T07:07:12.926Z,1000.72
2017-03-18T07:07:53.438Z,1000.78
2017-03-18T07:08:33.951Z,1000.73
2017-03-18T07:09:14.469Z,1000.71
2017-03-18T07:09:54.976Z,1000.72
2017-03-18T07:10:35.501Z,1000.86
2017-03-18T07:11:16.029Z,1000.73
2017-03-18T07:11:56.526Z,1000.79
2017-03-18T07:12:37.025Z,1000.65
2017-03-18T07:13:17.529Z,1000.68
2017-03-18T07:13:58.017Z,1000.71
2017-03-18T07:14:38.525Z,1000.76
2017-03-18T07:15:19.058Z,1000.68
2017-03-18T07:15:59.586Z,1000.7
2017-03-18T07:16:40.086Z,1000.7
2017-03-18T07:17:20.602Z,1000.79
2017-03-18T07:18:01.120Z,1000.81
2017-03-18T07:18:41.635Z,1000.75
2017-03-18T07:19:22.163Z,1000.72
2017-03-18T07:20:02.669Z,1000.7
2017-03-18T07:20:43.202Z,1000.8
2017-03-18T07:21:23.712Z,1000.79
2017-03-18T07:22:04.216Z,1000.81
2017-03-18T07:22:44.745Z,1000.76
2017-03-18T07:23:25.261Z,1000.89
2017-03-18T07:24:05.789Z,1000.81
2017-03-18T07:24:46.322Z,1000.9
2017-03-18T07:25:26.834Z,1000.79
2017-03-18T07:26:07.340Z,1000.85
2017-03-18T07:26:47.868Z,1000.82
2017-03-18T07:27:28.382Z,1000.93
2017-03-18T07:28:08.904Z,1000.87
2017-03-18T07:28:49.418Z,1000.93
2017-03-18T07:29:29.946Z,1000.94
2017-03-18T07:30:10.472Z,1000.99
2017-03-18T07:30:50.976Z,1000.89
2017-03-18T07:31:31.483Z,1000.91
2017-03-18T07:32:12.000Z,1000.93
2017-03-18T07:32:52.483Z,1000.84
2017-03-18T07:33:32.983Z,1000.77
2017-03-18T07:34:13.486Z,1000.88
2017-03-18T07:34:54.016Z,1000.74
2017-03-18T07:35:34.558Z,1000.75
2017-03-18T07:36:15.075Z,1000.82
2017-03-18T07:36:55.577Z,1000.84
2017-03-18T07:37:36.085Z,1000.95
2017-03-18T07:38:16.609Z,1000.96
2017-03-18T07:38:57.125Z,1000.92
2017-03-18T07:39:37.652Z,1000.93
2017-03-18T07:40:18.148Z,1000.96
2017-03-18T07:40:58.685Z,1000.99
2017-03-18T07:41:39.197Z,1000.98
2017-03-18T07:42:19.735Z,1000.95
2017-03-18T07:43:00.229Z,1000.95
2017-03-18T07:43:40.807Z,1000.9
2017-03-18T07:44:21.334Z,1000.99
2017-03-18T07:45:01.845Z,1001.05
2017-03-18T07:45:42.354Z,1001.02
2017-03-18T07:46:22.867Z,1001
2017-03-18T07:47:03.401Z,1001.04
2017-03-18T07:47:43.901Z,1001.01
2017-03-18T07:48:24.423Z,1000.94
2017-03-18T07:49:04.923Z,1000.99
2017-03-18T07:49:45.424Z,1001.07
2017-03-18T07:50:25.946Z,1001.08
2017-03-18T07:51:06.456Z,1001.11
2017-03-18T07:51:46.984Z,1001.06
2017-03-18T07:52:27.497Z,1001.03
2017-03-18T07:53:08.016Z,1001.1
2017-03-18T07:53:48.528Z,1001.06
2017-03-18T07:54:29.035Z,1001.09
2017-03-18T07:55:09.550Z,1001.06
2017-03-18T07:55:50.065Z,1001.13
2017-03-18T07:56:30.578Z,1001.11
2017-03-18T07:57:11.082Z,1001.05
2017-03-18T07:57:51.592Z,1001.09
2017-03-18T07:58:32.119Z,1001.03
2017-03-18T07:59:12.642Z,1001.17
2017-03-18T07:59:53.168Z,1000.99
2017-03-18T08:00:33.713Z,1001.06
2017-03-18T08:01:14.227Z,1001.03
2017-03-18T08:01:54.740Z,1001.02
2017-03-18T08:02:35.249Z,1000.98
2017-03-18T08:03:15.781Z,1001.1
2017-03-18T08:03:56.308Z,1001.14
2017-03-18T08:04:36.833Z,1000.98
2017-03-18T08:05:17.354Z,1001.04
2017-03-18T08:05:57.902Z,1000.99
2017-03-18T08:06:38.392Z,1000.98
2017-03-18T08:07:18.940Z,1000.92
2017-03-18T08:07:59.440Z,1000.92
2017-03-18T08:08:39.947Z,1000.96
2017-03-18T08:09:20.460Z,1000.89
2017-03-18T08:10:00.986Z,1000.93
2017-03-18T08:10:41.495Z,1000.93
2017-03-18T08:11:22.017Z,1000.89